createdAt,value
2019-02-18T00:01:19.162Z,12.05
2019-02-18T00:06:24.772Z,16.75
2019-02-18T00:11:30.374Z,12.73
2019-02-18T00:16:35.996Z,14.38
2019-02-18T00:21:41.604Z,13.55
2019-02-18T00:26:47.197Z,15.60
2019-02-18T00:31:52.803Z,15.65
2019-02-18T00:36:58.729Z,18.02
2019-02-18T00:42:04.329Z,18.75
2019-02-18T00:47:09.931Z,15.28
2019-02-18T00:52:15.529Z,19.00
2019-02-18T00:57:21.133Z,14.07
2019-02-18T01:02:26.807Z,13.80
2019-02-18T01:07:34.673Z,11.50
2019-02-18T01:12:39.888Z,16.65
2019-02-18T01:17:45.608Z,10.78
2019-02-18T01:22:51.221Z,13.72
2019-02-18T01:27:56.820Z,13.83
2019-02-18T01:33:02.621Z,11.70
2019-02-18T01:38:08.219Z,12.25
2019-02-18T01:43:13.884Z,12.55
2019-02-18T01:48:19.550Z,11.45
2019-02-18T01:53:25.161Z,12.93
2019-02-18T01:58:30.839Z,15.85
2019-02-18T02:03:36.505Z,14.65
2019-02-18T02:08:42.167Z,18.25
2019-02-18T02:13:47.829Z,11.65
2019-02-18T02:18:53.528Z,16.85
2019-02-18T02:23:59.242Z,14.73
2019-02-18T02:29:04.848Z,17.77
2019-02-18T02:34:10.539Z,15.13
2019-02-18T02:39:16.125Z,14.95
2019-02-18T02:44:21.725Z,16.52
2019-02-18T02:49:27.413Z,16.32
2019-02-18T02:54:33.018Z,16.05
2019-02-18T02:59:38.626Z,13.62
2019-02-18T03:04:44.226Z,17.10
2019-02-18T03:09:49.831Z,18.07
2019-02-18T03:14:55.512Z,16.12
2019-02-18T03:20:01.158Z,19.55
2019-02-18T03:25:31.985Z,14.53
2019-02-18T03:30:52.519Z,22.15
2019-02-18T03:35:58.190Z,14.78
2019-02-18T03:41:03.875Z,13.60
2019-02-18T03:46:09.544Z,13.72
2019-02-18T03:51:15.220Z,15.45
2019-02-18T03:56:20.833Z,15.55
2019-02-18T04:01:26.450Z,21.10
2019-02-18T04:06:32.072Z,20.08
2019-02-18T04:11:37.699Z,17.85
2019-02-18T04:16:43.684Z,15.78
2019-02-18T04:21:49.295Z,19.42
2019-02-18T04:26:54.959Z,15.83
2019-02-18T04:32:00.678Z,19.60
2019-02-18T04:37:06.283Z,17.95
2019-02-18T04:42:12.031Z,11.80
2019-02-18T04:47:17.799Z,15.43
2019-02-18T04:52:23.411Z,16.27
2019-02-18T04:57:31.336Z,14.00
2019-02-18T05:02:36.343Z,19.45
2019-02-18T05:07:42.013Z,12.13
2019-02-18T05:12:47.648Z,14.98
2019-02-18T05:17:53.251Z,12.37
2019-02-18T05:22:59.000Z,18.70
2019-02-18T05:28:04.725Z,17.73
2019-02-18T05:33:10.409Z,16.40
2019-02-18T05:38:16.089Z,17.05
2019-02-18T05:43:21.699Z,16.45
2019-02-18T05:48:27.400Z,14.18
2019-02-18T05:53:33.022Z,12.55
2019-02-18T05:58:38.632Z,16.23
2019-02-18T06:03:44.319Z,17.70
2019-02-18T06:08:50.001Z,14.68
2019-02-18T06:13:55.617Z,13.50
2019-02-18T06:19:01.251Z,17.57
2019-02-18T06:24:06.881Z,14.38
2019-02-18T06:29:14.175Z,14.35
2019-02-18T06:34:19.862Z,19.15
2019-02-18T06:39:25.504Z,18.80
2019-02-18T06:44:58.839Z,15.95
2019-02-18T06:50:04.670Z,22.15
2019-02-18T06:55:10.291Z,19.23
2019-02-18T07:00:24.955Z,18.27
2019-02-18T07:05:42.741Z,20.50
2019-02-18T07:11:00.515Z,17.82
2019-02-18T07:16:06.209Z,18.42
2019-02-18T07:21:11.981Z,21.12
2019-02-18T07:26:17.585Z,18.37
2019-02-18T07:31:23.219Z,20.82
2019-02-18T07:36:29.038Z,21.73
2019-02-18T07:41:34.721Z,17.45
2019-02-18T07:46:40.421Z,15.65
2019-02-18T07:51:46.037Z,15.30
2019-02-18T07:56:51.743Z,13.22
2019-02-18T08:01:57.404Z,16.05
2019-02-18T08:07:03.027Z,17.67
2019-02-18T08:12:08.709Z,18.25
2019-02-18T08:17:14.349Z,17.57
2019-02-18T08:22:20.112Z,13.62
2019-02-18T08:27:25.945Z,13.75
2019-02-18T08:32:31.650Z,13.22
2019-02-18T08:37:37.438Z,14.93
2019-02-18T08:42:43.133Z,16.73
2019-02-18T08:47:48.817Z,12.78
2019-02-18T08:52:54.474Z,18.98
2019-02-18T08:58:00.098Z,12.82
2019-02-18T09:03:05.858Z,14.07
2019-02-18T09:08:11.549Z,16.10
2019-02-18T09:13:17.138Z,13.62
2019-02-18T09:18:22.749Z,12.80
2019-02-18T09:23:48.588Z,12.00
2019-02-18T09:28:54.265Z,12.45
2019-02-18T09:33:59.904Z,12.63
2019-02-18T09:39:11.691Z,11.55
2019-02-18T09:44:17.394Z,14.30
2019-02-18T09:49:23.087Z,16.15
2019-02-18T09:54:28.697Z,13.25
2019-02-18T09:59:34.317Z,14.28
2019-02-18T10:04:39.947Z,12.23
2019-02-18T10:09:45.635Z,17.23
2019-02-18T10:14:51.240Z,19.52
2019-02-18T10:19:56.852Z,23.32
2019-02-18T10:25:02.464Z,22.17
2019-02-18T10:30:08.087Z,18.98
2019-02-18T10:35:13.879Z,23.77
2019-02-18T10:40:19.517Z,25.82
2019-02-18T10:45:25.201Z,25.40
2019-02-18T10:50:30.817Z,19.67
2019-02-18T10:55:36.709Z,24.77
2019-02-18T11:00:42.339Z,21.45
2019-02-18T11:05:48.138Z,23.12
2019-02-18T11:10:53.827Z,16.60
2019-02-18T11:15:59.463Z,19.07
2019-02-18T11:21:05.375Z,18.87
2019-02-18T11:26:11.095Z,22.37
2019-02-18T11:31:16.770Z,28.67
2019-02-18T11:36:22.843Z,20.23
2019-02-18T11:41:28.522Z,27.58
2019-02-18T11:46:34.122Z,21.35
2019-02-18T11:51:39.808Z,21.90
2019-02-18T11:56:45.503Z,20.50
2019-02-18T12:01:52.108Z,19.52
2019-02-18T12:06:57.752Z,23.22
2019-02-18T12:12:03.362Z,28.23
2019-02-18T12:17:09.039Z,29.27
2019-02-18T12:22:14.825Z,26.15
2019-02-18T12:27:20.426Z,19.65
2019-02-18T12:32:26.041Z,26.48
2019-02-18T12:37:31.717Z,27.90
2019-02-18T12:42:37.406Z,23.85
2019-02-18T12:47:43.024Z,29.98
2019-02-18T12:52:48.705Z,22.95
2019-02-18T12:57:54.661Z,25.50
2019-02-18T13:03:00.272Z,18.48
2019-02-18T13:08:05.899Z,17.82
2019-02-18T13:13:11.594Z,23.10
2019-02-18T13:18:17.267Z,25.68
2019-02-18T13:23:22.879Z,23.27
2019-02-18T13:28:28.487Z,21.07
2019-02-18T13:33:34.185Z,24.05
2019-02-18T13:38:39.815Z,27.67
2019-02-18T13:43:45.421Z,29.02
2019-02-18T13:48:51.205Z,34.75
2019-02-18T13:53:56.978Z,21.45
2019-02-18T13:59:02.779Z,27.20
2019-02-18T14:04:08.454Z,24.85
2019-02-18T14:09:14.077Z,23.83
2019-02-18T14:14:19.877Z,20.35
2019-02-18T14:19:25.653Z,22.77
2019-02-18T14:24:31.264Z,22.35
2019-02-18T14:29:36.945Z,18.82
2019-02-18T14:34:42.925Z,25.82
2019-02-18T14:39:48.606Z,25.57
2019-02-18T14:44:54.392Z,21.30
2019-02-18T14:50:00.031Z,25.55
2019-02-18T14:55:05.934Z,27.25
2019-02-18T15:00:22.470Z,24.10
2019-02-18T15:05:28.219Z,24.87
2019-02-18T15:10:33.821Z,21.80
2019-02-18T15:15:39.620Z,19.90
2019-02-18T15:20:45.280Z,20.70
2019-02-18T15:25:50.891Z,25.43
2019-02-18T15:30:56.655Z,24.80
2019-02-18T15:36:02.515Z,24.27
2019-02-18T15:41:08.140Z,21.33
2019-02-18T15:46:13.826Z,30.50
2019-02-18T15:51:19.430Z,23.18
2019-02-18T15:56:25.042Z,23.92
2019-02-18T16:01:30.814Z,27.58
2019-02-18T16:06:36.674Z,24.60
2019-02-18T16:11:42.308Z,31.00
2019-02-18T16:16:47.920Z,30.97
2019-02-18T16:21:53.546Z,34.23
2019-02-18T16:26:59.343Z,26.27
2019-02-18T16:32:05.039Z,30.43
2019-02-18T16:37:11.514Z,28.32
2019-02-18T16:42:17.278Z,34.48
2019-02-18T16:47:22.907Z,30.08
2019-02-18T16:52:28.593Z,27.95
2019-02-18T16:57:34.549Z,32.80
2019-02-18T17:02:40.154Z,28.80
2019-02-18T17:07:45.762Z,29.23
2019-02-18T17:12:51.397Z,28.35
2019-02-18T17:17:57.116Z,30.35
2019-02-18T17:23:02.720Z,32.38
2019-02-18T17:28:08.394Z,31.93
2019-02-18T17:33:14.028Z,36.93
2019-02-18T17:38:19.708Z,30.25
2019-02-18T17:43:25.455Z,31.73
2019-02-18T17:48:31.066Z,32.95
2019-02-18T17:53:36.680Z,28.62
2019-02-18T17:58:42.293Z,33.58
2019-02-18T18:03:47.983Z,21.75
2019-02-18T18:08:54.021Z,33.50
2019-02-18T18:13:59.751Z,34.92
2019-02-18T18:19:09.385Z,33.88
2019-02-18T18:24:12.659Z,35.05
2019-02-18T18:29:18.364Z,31.60
2019-02-18T18:34:23.969Z,28.77
2019-02-18T18:39:29.644Z,33.48
2019-02-18T18:44:35.421Z,32.90
2019-02-18T18:49:41.315Z,62.30
2019-02-18T18:54:46.985Z,53.50
2019-02-18T18:59:52.962Z,52.33
2019-02-18T19:04:58.672Z,78.80
2019-02-18T19:10:06.044Z,84.70
2019-02-18T19:15:12.235Z,93.65
2019-02-18T19:20:18.175Z,93.35
2019-02-18T19:25:23.794Z,126.72
2019-02-18T19:30:29.788Z,100.05
2019-02-18T19:35:35.778Z,105.75
2019-02-18T19:40:41.399Z,99.00
2019-02-18T19:45:47.098Z,105.17
2019-02-18T19:50:52.720Z,95.10
2019-02-18T19:55:58.462Z,88.87
2019-02-18T20:01:04.214Z,81.90
2019-02-18T20:06:09.841Z,73.12
2019-02-18T20:11:15.501Z,81.37
2019-02-18T20:16:21.186Z,63.60
2019-02-18T20:21:26.865Z,60.33
2019-02-18T20:26:32.530Z,63.92
2019-02-18T20:31:38.138Z,74.72
2019-02-18T20:36:43.781Z,69.05
2019-02-18T20:41:51.451Z,64.07
2019-02-18T20:46:57.353Z,56.25
2019-02-18T20:52:02.980Z,52.40
2019-02-18T20:57:08.678Z,56.02
2019-02-18T21:02:14.287Z,49.80
2019-02-18T21:07:19.972Z,56.18
2019-02-18T21:12:25.711Z,60.00
2019-02-18T21:17:31.432Z,56.88
2019-02-18T21:22:37.219Z,56.98
2019-02-18T21:27:43.116Z,56.95
2019-02-18T21:32:48.814Z,50.75
2019-02-18T21:37:54.496Z,52.95
2019-02-18T21:43:00.160Z,53.73
2019-02-18T21:48:05.773Z,53.80
2019-02-18T21:53:11.452Z,53.95
2019-02-18T21:58:17.076Z,38.63
2019-02-18T22:03:22.677Z,47.98
2019-02-18T22:08:28.368Z,48.25
2019-02-18T22:13:34.059Z,55.38
2019-02-18T22:18:39.758Z,49.90
2019-02-18T22:23:45.377Z,48.65
2019-02-18T22:28:50.988Z,50.10
2019-02-18T22:33:56.602Z,42.90
2019-02-18T22:39:02.484Z,59.30
2019-02-18T22:44:08.098Z,45.73
2019-02-18T22:49:13.787Z,47.05
2019-02-18T22:54:19.462Z,45.45
2019-02-18T22:59:25.066Z,48.45
2019-02-18T23:04:30.680Z,53.83
2019-02-18T23:09:36.295Z,43.80
2019-02-18T23:14:50.153Z,42.35
2019-02-18T23:19:49.317Z,41.40
2019-02-18T23:24:54.931Z,40.80
2019-02-18T23:30:00.551Z,45.20
2019-02-18T23:35:06.265Z,42.75
2019-02-18T23:40:12.048Z,34.88
2019-02-18T23:45:17.722Z,37.23
2019-02-18T23:50:23.413Z,43.40
2019-02-18T23:55:29.026Z,35.78
